sensor_id;sensor_type;location;lat;lon;timestamp;temperature;humidity
19330;DHT22;9799;48.214;16.388;2022-07-19T00:00:08;22.60;86.30
19330;DHT22;9799;48.214;16.388;2022-07-19T00:03:31;22.50;86.70
19330;DHT22;9799;48.214;16.388;2022-07-19T00:06:52;22.40;86.90
19330;DHT22;9799;48.214;16.388;2022-07-19T00:10:17;22.50;86.40
19330;DHT22;9799;48.214;16.388;2022-07-19T00:13:39;22.50;87.60
19330;DHT22;9799;48.214;16.388;2022-07-19T00:17:00;22.50;87.60
19330;DHT22;9799;48.214;16.388;2022-07-19T00:20:22;22.60;88.10
19330;DHT22;9799;48.214;16.388;2022-07-19T00:23:43;22.40;89.20
19330;DHT22;9799;48.214;16.388;2022-07-19T00:27:05;22.30;90.00
19330;DHT22;9799;48.214;16.388;2022-07-19T00:30:26;22.20;90.20
19330;DHT22;9799;48.214;16.388;2022-07-19T00:33:47;22.30;90.50
19330;DHT22;9799;48.214;16.388;2022-07-19T00:37:09;22.20;90.70
19330;DHT22;9799;48.214;16.388;2022-07-19T00:40:31;22.10;91.20
19330;DHT22;9799;48.214;16.388;2022-07-19T00:43:52;22.00;91.30
19330;DHT22;9799;48.214;16.388;2022-07-19T00:47:13;21.90;91.90
19330;DHT22;9799;48.214;16.388;2022-07-19T00:50:34;21.80;92.50
19330;DHT22;9799;48.214;16.388;2022-07-19T00:53:58;21.80;92.90
19330;DHT22;9799;48.214;16.388;2022-07-19T00:57:23;21.80;93.00
19330;DHT22;9799;48.214;16.388;2022-07-19T01:00:44;21.80;92.70
19330;DHT22;9799;48.214;16.388;2022-07-19T01:04:05;21.80;92.80
19330;DHT22;9799;48.214;16.388;2022-07-19T01:07:27;21.90;92.50
19330;DHT22;9799;48.214;16.388;2022-07-19T01:10:49;21.80;93.00
19330;DHT22;9799;48.214;16.388;2022-07-19T01:14:10;21.70;93.40
19330;DHT22;9799;48.214;16.388;2022-07-19T01:17:31;21.50;93.30
19330;DHT22;9799;48.214;16.388;2022-07-19T01:20:53;21.50;92.90
19330;DHT22;9799;48.214;16.388;2022-07-19T01:24:15;21.50;92.80
19330;DHT22;9799;48.214;16.388;2022-07-19T01:27:41;21.40;93.40
19330;DHT22;9799;48.214;16.388;2022-07-19T01:31:02;21.40;93.70
19330;DHT22;9799;48.214;16.388;2022-07-19T01:34:23;21.50;93.80
19330;DHT22;9799;48.214;16.388;2022-07-19T01:37:45;21.60;94.20
19330;DHT22;9799;48.214;16.388;2022-07-19T01:41:07;21.60;94.50
19330;DHT22;9799;48.214;16.388;2022-07-19T01:44:28;21.50;95.00
19330;DHT22;9799;48.214;16.388;2022-07-19T01:47:50;21.40;95.60
19330;DHT22;9799;48.214;16.388;2022-07-19T01:51:11;21.40;97.20
19330;DHT22;9799;48.214;16.388;2022-07-19T01:54:32;21.30;98.80
19330;DHT22;9799;48.214;16.388;2022-07-19T01:57:54;21.20;98.30
19330;DHT22;9799;48.214;16.388;2022-07-19T02:01:15;21.10;99.10
19330;DHT22;9799;48.214;16.388;2022-07-19T02:04:36;21.10;99.20
19330;DHT22;9799;48.214;16.388;2022-07-19T02:07:58;21.10;99.90
19330;DHT22;9799;48.214;16.388;2022-07-19T02:11:20;21.10;99.70
19330;DHT22;9799;48.214;16.388;2022-07-19T02:14:58;21.00;99.90
19330;DHT22;9799;48.214;16.388;2022-07-19T02:18:19;21.00;99.90
19330;DHT22;9799;48.214;16.388;2022-07-19T02:21:40;21.20;99.90
19330;DHT22;9799;48.214;16.388;2022-07-19T02:25:01;21.10;99.90
19330;DHT22;9799;48.214;16.388;2022-07-19T02:28:22;21.10;99.90
19330;DHT22;9799;48.214;16.388;2022-07-19T02:31:45;21.00;98.60
19330;DHT22;9799;48.214;16.388;2022-07-19T02:35:07;21.00;98.60
19330;DHT22;9799;48.214;16.388;2022-07-19T02:38:30;21.00;98.60
19330;DHT22;9799;48.214;16.388;2022-07-19T02:41:51;21.00;98.30
19330;DHT22;9799;48.214;16.388;2022-07-19T02:45:12;21.00;98.80
19330;DHT22;9799;48.214;16.388;2022-07-19T02:48:35;21.00;99.30
19330;DHT22;9799;48.214;16.388;2022-07-19T02:51:56;21.10;99.40
19330;DHT22;9799;48.214;16.388;2022-07-19T02:55:17;21.10;99.40
19330;DHT22;9799;48.214;16.388;2022-07-19T02:58:38;21.10;99.60
19330;DHT22;9799;48.214;16.388;2022-07-19T03:01:59;21.00;99.90
19330;DHT22;9799;48.214;16.388;2022-07-19T03:05:22;21.00;99.90
19330;DHT22;9799;48.214;16.388;2022-07-19T03:08:43;20.80;99.90
19330;DHT22;9799;48.214;16.388;2022-07-19T03:12:05;20.60;99.90
19330;DHT22;9799;48.214;16.388;2022-07-19T03:15:26;20.50;99.90
19330;DHT22;9799;48.214;16.388;2022-07-19T03:18:47;20.40;99.90
19330;DHT22;9799;48.214;16.388;2022-07-19T03:22:10;20.40;99.90
19330;DHT22;9799;48.214;16.388;2022-07-19T03:25:31;20.40;99.90
19330;DHT22;9799;48.214;16.388;2022-07-19T03:28:52;20.40;99.90
19330;DHT22;9799;48.214;16.388;2022-07-19T03:32:13;20.40;99.90
19330;DHT22;9799;48.214;16.388;2022-07-19T03:35:34;20.30;99.90
19330;DHT22;9799;48.214;16.388;2022-07-19T03:38:57;20.40;99.90
19330;DHT22;9799;48.214;16.388;2022-07-19T03:42:19;20.50;99.90
19330;DHT22;9799;48.214;16.388;2022-07-19T03:45:41;20.50;99.90
19330;DHT22;9799;48.214;16.388;2022-07-19T03:49:03;20.40;99.90
19330;DHT22;9799;48.214;16.388;2022-07-19T03:52:27;20.30;99.90
19330;DHT22;9799;48.214;16.388;2022-07-19T03:55:49;20.30;99.90
19330;DHT22;9799;48.214;16.388;2022-07-19T03:59:10;20.20;99.90
19330;DHT22;9799;48.214;16.388;2022-07-19T04:02:32;20.30;99.90
19330;DHT22;9799;48.214;16.388;2022-07-19T04:05:53;20.20;99.90
19330;DHT22;9799;48.214;16.388;2022-07-19T04:09:14;20.30;99.90
19330;DHT22;9799;48.214;16.388;2022-07-19T04:12:37;20.20;99.90
19330;DHT22;9799;48.214;16.388;2022-07-19T04:15:58;20.10;99.90
19330;DHT22;9799;48.214;16.388;2022-07-19T04:19:19;20.10;99.90
19330;DHT22;9799;48.214;16.388;2022-07-19T04:22:40;20.20;99.90
19330;DHT22;9799;48.214;16.388;2022-07-19T04:26:01;20.50;99.90
19330;DHT22;9799;48.214;16.388;2022-07-19T04:29:24;20.50;99.90
19330;DHT22;9799;48.214;16.388;2022-07-19T04:32:45;20.70;99.90
19330;DHT22;9799;48.214;16.388;2022-07-19T04:36:06;20.80;99.90
19330;DHT22;9799;48.214;16.388;2022-07-19T04:39:27;20.60;99.90
19330;DHT22;9799;48.214;16.388;2022-07-19T04:42:49;20.50;99.90
19330;DHT22;9799;48.214;16.388;2022-07-19T04:46:11;20.40;99.90
19330;DHT22;9799;48.214;16.388;2022-07-19T04:49:32;20.50;99.90
19330;DHT22;9799;48.214;16.388;2022-07-19T04:52:53;20.70;99.90
19330;DHT22;9799;48.214;16.388;2022-07-19T04:56:14;20.60;99.90
19330;DHT22;9799;48.214;16.388;2022-07-19T04:59:36;20.70;99.90
19330;DHT22;9799;48.214;16.388;2022-07-19T05:02:58;20.80;99.90
19330;DHT22;9799;48.214;16.388;2022-07-19T05:06:19;21.00;99.90
19330;DHT22;9799;48.214;16.388;2022-07-19T05:09:40;21.00;99.90
19330;DHT22;9799;48.214;16.388;2022-07-19T05:13:02;21.10;99.90
19330;DHT22;9799;48.214;16.388;2022-07-19T05:16:23;21.20;99.90
19330;DHT22;9799;48.214;16.388;2022-07-19T05:19:45;21.30;99.90
19330;DHT22;9799;48.214;16.388;2022-07-19T05:23:06;21.40;99.90
19330;DHT22;9799;48.214;16.388;2022-07-19T05:26:28;21.50;99.90
19330;DHT22;9799;48.214;16.388;2022-07-19T05:29:50;21.50;99.90
19330;DHT22;9799;48.214;16.388;2022-07-19T05:33:11;21.70;99.90
19330;DHT22;9799;48.214;16.388;2022-07-19T05:36:33;21.80;99.90
19330;DHT22;9799;48.214;16.388;2022-07-19T05:39:55;22.00;99.90
19330;DHT22;9799;48.214;16.388;2022-07-19T05:43:16;22.10;99.90
19330;DHT22;9799;48.214;16.388;2022-07-19T05:46:37;22.10;99.90
19330;DHT22;9799;48.214;16.388;2022-07-19T05:50:00;22.20;99.90
19330;DHT22;9799;48.214;16.388;2022-07-19T05:53:23;22.30;99.90
19330;DHT22;9799;48.214;16.388;2022-07-19T05:56:44;22.40;99.90
19330;DHT22;9799;48.214;16.388;2022-07-19T06:00:06;22.80;99.90
19330;DHT22;9799;48.214;16.388;2022-07-19T06:03:28;23.10;99.90
19330;DHT22;9799;48.214;16.388;2022-07-19T06:06:49;23.50;99.90
19330;DHT22;9799;48.214;16.388;2022-07-19T06:10:11;23.80;99.90
19330;DHT22;9799;48.214;16.388;2022-07-19T06:13:33;23.90;98.70
19330;DHT22;9799;48.214;16.388;2022-07-19T06:16:54;24.00;98.30
19330;DHT22;9799;48.214;16.388;2022-07-19T06:20:15;24.20;98.20
19330;DHT22;9799;48.214;16.388;2022-07-19T06:23:36;24.30;95.60
19330;DHT22;9799;48.214;16.388;2022-07-19T06:26:59;24.40;94.90
19330;DHT22;9799;48.214;16.388;2022-07-19T06:30:20;24.50;93.00
19330;DHT22;9799;48.214;16.388;2022-07-19T06:33:42;24.60;92.60
19330;DHT22;9799;48.214;16.388;2022-07-19T06:37:04;24.80;92.10
19330;DHT22;9799;48.214;16.388;2022-07-19T06:40:25;25.10;92.00
19330;DHT22;9799;48.214;16.388;2022-07-19T06:43:47;25.30;91.40
19330;DHT22;9799;48.214;16.388;2022-07-19T06:47:09;25.30;89.80
19330;DHT22;9799;48.214;16.388;2022-07-19T06:50:30;25.30;90.00
19330;DHT22;9799;48.214;16.388;2022-07-19T06:53:51;25.50;88.00
19330;DHT22;9799;48.214;16.388;2022-07-19T06:57:12;25.60;87.80
19330;DHT22;9799;48.214;16.388;2022-07-19T07:00:35;25.80;86.30
19330;DHT22;9799;48.214;16.388;2022-07-19T07:03:56;25.90;85.20
19330;DHT22;9799;48.214;16.388;2022-07-19T07:07:17;26.10;86.40
19330;DHT22;9799;48.214;16.388;2022-07-19T07:10:38;26.20;86.10
19330;DHT22;9799;48.214;16.388;2022-07-19T07:14:00;26.00;86.80
19330;DHT22;9799;48.214;16.388;2022-07-19T07:17:23;26.00;84.10
19330;DHT22;9799;48.214;16.388;2022-07-19T07:20:44;26.10;89.70
19330;DHT22;9799;48.214;16.388;2022-07-19T07:24:06;26.10;90.90
19330;DHT22;9799;48.214;16.388;2022-07-19T07:27:27;26.00;90.50
19330;DHT22;9799;48.214;16.388;2022-07-19T07:30:48;25.80;90.10
19330;DHT22;9799;48.214;16.388;2022-07-19T07:34:11;25.90;89.60
19330;DHT22;9799;48.214;16.388;2022-07-19T07:37:32;26.10;90.00
19330;DHT22;9799;48.214;16.388;2022-07-19T07:40:53;26.10;90.00
19330;DHT22;9799;48.214;16.388;2022-07-19T07:44:14;26.10;90.10
19330;DHT22;9799;48.214;16.388;2022-07-19T07:47:35;26.20;90.10
19330;DHT22;9799;48.214;16.388;2022-07-19T07:50:58;26.10;90.20
19330;DHT22;9799;48.214;16.388;2022-07-19T07:54:19;26.30;90.20
19330;DHT22;9799;48.214;16.388;2022-07-19T07:57:40;26.20;91.00
19330;DHT22;9799;48.214;16.388;2022-07-19T08:01:03;26.30;88.90
19330;DHT22;9799;48.214;16.388;2022-07-19T08:04:24;26.40;88.20
19330;DHT22;9799;48.214;16.388;2022-07-19T08:07:47;26.50;86.50
19330;DHT22;9799;48.214;16.388;2022-07-19T08:11:11;26.60;87.80
19330;DHT22;9799;48.214;16.388;2022-07-19T08:14:32;26.70;86.60
19330;DHT22;9799;48.214;16.388;2022-07-19T08:17:53;26.70;85.80
19330;DHT22;9799;48.214;16.388;2022-07-19T08:21:14;26.70;84.80
19330;DHT22;9799;48.214;16.388;2022-07-19T08:24:37;26.80;84.40
19330;DHT22;9799;48.214;16.388;2022-07-19T08:27:58;26.90;83.60
19330;DHT22;9799;48.214;16.388;2022-07-19T08:31:22;26.90;83.60
19330;DHT22;9799;48.214;16.388;2022-07-19T08:34:43;27.00;83.80
19330;DHT22;9799;48.214;16.388;2022-07-19T08:38:04;27.00;82.30
19330;DHT22;9799;48.214;16.388;2022-07-19T08:41:26;27.00;82.00
19330;DHT22;9799;48.214;16.388;2022-07-19T08:44:50;27.20;81.00
19330;DHT22;9799;48.214;16.388;2022-07-19T08:48:12;27.30;79.90
19330;DHT22;9799;48.214;16.388;2022-07-19T08:51:35;27.50;80.60
19330;DHT22;9799;48.214;16.388;2022-07-19T08:54:56;27.80;79.40
19330;DHT22;9799;48.214;16.388;2022-07-19T08:58:18;27.70;78.30
19330;DHT22;9799;48.214;16.388;2022-07-19T09:01:39;27.80;77.40
19330;DHT22;9799;48.214;16.388;2022-07-19T09:05:02;28.00;76.60
19330;DHT22;9799;48.214;16.388;2022-07-19T09:08:24;28.00;75.20
19330;DHT22;9799;48.214;16.388;2022-07-19T09:11:48;28.00;73.80
19330;DHT22;9799;48.214;16.388;2022-07-19T09:15:11;28.10;72.40
19330;DHT22;9799;48.214;16.388;2022-07-19T09:18:34;28.30;72.80
19330;DHT22;9799;48.214;16.388;2022-07-19T09:21:58;28.30;70.60
19330;DHT22;9799;48.214;16.388;2022-07-19T09:25:32;28.40;73.80
19330;DHT22;9799;48.214;16.388;2022-07-19T09:28:53;28.50;71.00
19330;DHT22;9799;48.214;16.388;2022-07-19T09:32:17;28.80;71.00
19330;DHT22;9799;48.214;16.388;2022-07-19T09:35:40;29.00;70.20
19330;DHT22;9799;48.214;16.388;2022-07-19T09:39:02;29.10;67.80
19330;DHT22;9799;48.214;16.388;2022-07-19T09:42:25;29.30;67.80
19330;DHT22;9799;48.214;16.388;2022-07-19T09:45:54;29.10;66.50
19330;DHT22;9799;48.214;16.388;2022-07-19T09:49:18;29.20;64.90
19330;DHT22;9799;48.214;16.388;2022-07-19T09:52:40;29.40;67.40
19330;DHT22;9799;48.214;16.388;2022-07-19T09:56:01;29.30;65.60
19330;DHT22;9799;48.214;16.388;2022-07-19T09:59:24;29.20;64.10
19330;DHT22;9799;48.214;16.388;2022-07-19T10:02:48;29.30;66.10
19330;DHT22;9799;48.214;16.388;2022-07-19T10:06:12;29.50;64.30
19330;DHT22;9799;48.214;16.388;2022-07-19T10:09:34;29.50;65.00
19330;DHT22;9799;48.214;16.388;2022-07-19T10:12:57;29.50;64.30
19330;DHT22;9799;48.214;16.388;2022-07-19T10:16:24;29.60;64.90
19330;DHT22;9799;48.214;16.388;2022-07-19T10:19:46;29.90;64.60
19330;DHT22;9799;48.214;16.388;2022-07-19T10:23:09;29.80;63.90
19330;DHT22;9799;48.214;16.388;2022-07-19T10:26:34;29.80;63.60
19330;DHT22;9799;48.214;16.388;2022-07-19T10:30:20;29.50;64.40
19330;DHT22;9799;48.214;16.388;2022-07-19T10:33:43;29.60;64.60
19330;DHT22;9799;48.214;16.388;2022-07-19T10:37:42;29.60;63.50
19330;DHT22;9799;48.214;16.388;2022-07-19T10:41:26;30.10;63.40
19330;DHT22;9799;48.214;16.388;2022-07-19T10:45:10;30.20;62.60
19330;DHT22;9799;48.214;16.388;2022-07-19T10:48:37;30.20;62.30
19330;DHT22;9799;48.214;16.388;2022-07-19T10:52:31;30.20;62.20
19330;DHT22;9799;48.214;16.388;2022-07-19T10:56:14;30.10;61.10
19330;DHT22;9799;48.214;16.388;2022-07-19T10:59:40;30.00;61.60
19330;DHT22;9799;48.214;16.388;2022-07-19T11:03:26;30.20;61.60
19330;DHT22;9799;48.214;16.388;2022-07-19T11:06:48;30.50;60.30
19330;DHT22;9799;48.214;16.388;2022-07-19T11:10:09;30.60;60.70
19330;DHT22;9799;48.214;16.388;2022-07-19T11:13:32;30.80;59.80
19330;DHT22;9799;48.214;16.388;2022-07-19T11:16:59;31.00;59.70
19330;DHT22;9799;48.214;16.388;2022-07-19T11:20:22;30.80;59.30
19330;DHT22;9799;48.214;16.388;2022-07-19T11:23:45;30.80;59.40
19330;DHT22;9799;48.214;16.388;2022-07-19T11:27:08;30.80;58.70
19330;DHT22;9799;48.214;16.388;2022-07-19T11:30:32;31.00;58.50
19330;DHT22;9799;48.214;16.388;2022-07-19T11:34:00;30.90;57.40
19330;DHT22;9799;48.214;16.388;2022-07-19T11:37:25;30.90;57.40
19330;DHT22;9799;48.214;16.388;2022-07-19T11:40:46;31.00;57.10
19330;DHT22;9799;48.214;16.388;2022-07-19T11:44:08;31.10;58.10
19330;DHT22;9799;48.214;16.388;2022-07-19T11:47:33;31.20;56.90
19330;DHT22;9799;48.214;16.388;2022-07-19T11:50:59;31.30;57.70
19330;DHT22;9799;48.214;16.388;2022-07-19T11:54:20;31.40;56.40
19330;DHT22;9799;48.214;16.388;2022-07-19T11:57:41;31.50;55.90
19330;DHT22;9799;48.214;16.388;2022-07-19T12:01:04;31.60;55.80
19330;DHT22;9799;48.214;16.388;2022-07-19T12:04:36;31.50;55.40
19330;DHT22;9799;48.214;16.388;2022-07-19T12:08:00;31.70;55.40
19330;DHT22;9799;48.214;16.388;2022-07-19T12:11:22;31.60;55.20
19330;DHT22;9799;48.214;16.388;2022-07-19T12:14:44;31.50;60.30
19330;DHT22;9799;48.214;16.388;2022-07-19T12:18:05;31.40;55.60
19330;DHT22;9799;48.214;16.388;2022-07-19T12:21:38;31.50;57.30
19330;DHT22;9799;48.214;16.388;2022-07-19T12:25:01;31.50;59.10
19330;DHT22;9799;48.214;16.388;2022-07-19T12:28:25;31.30;57.30
19330;DHT22;9799;48.214;16.388;2022-07-19T12:31:48;31.30;57.60
19330;DHT22;9799;48.214;16.388;2022-07-19T12:35:11;31.20;58.00
19330;DHT22;9799;48.214;16.388;2022-07-19T12:38:35;31.40;58.20
19330;DHT22;9799;48.214;16.388;2022-07-19T12:42:04;31.60;57.80
19330;DHT22;9799;48.214;16.388;2022-07-19T12:45:31;31.60;56.60
19330;DHT22;9799;48.214;16.388;2022-07-19T12:48:53;31.90;56.30
19330;DHT22;9799;48.214;16.388;2022-07-19T12:52:14;32.00;56.10
19330;DHT22;9799;48.214;16.388;2022-07-19T12:55:38;32.00;55.20
19330;DHT22;9799;48.214;16.388;2022-07-19T12:58:59;31.80;55.40
19330;DHT22;9799;48.214;16.388;2022-07-19T13:02:37;31.90;55.50
19330;DHT22;9799;48.214;16.388;2022-07-19T13:05:58;32.00;55.80
19330;DHT22;9799;48.214;16.388;2022-07-19T13:09:19;32.10;55.50
19330;DHT22;9799;48.214;16.388;2022-07-19T13:12:42;32.40;54.60
19330;DHT22;9799;48.214;16.388;2022-07-19T13:16:04;32.20;55.00
19330;DHT22;9799;48.214;16.388;2022-07-19T13:19:25;32.20;54.50
19330;DHT22;9799;48.214;16.388;2022-07-19T13:22:46;32.00;55.00
19330;DHT22;9799;48.214;16.388;2022-07-19T13:26:09;31.90;55.00
19330;DHT22;9799;48.214;16.388;2022-07-19T13:29:32;32.00;55.90
19330;DHT22;9799;48.214;16.388;2022-07-19T13:32:53;32.00;54.60
19330;DHT22;9799;48.214;16.388;2022-07-19T13:36:15;31.70;54.50
19330;DHT22;9799;48.214;16.388;2022-07-19T13:39:36;31.70;56.70
19330;DHT22;9799;48.214;16.388;2022-07-19T13:42:57;31.90;54.50
19330;DHT22;9799;48.214;16.388;2022-07-19T13:46:20;31.80;54.40
19330;DHT22;9799;48.214;16.388;2022-07-19T13:49:41;31.60;55.30
19330;DHT22;9799;48.214;16.388;2022-07-19T13:53:03;31.60;54.90
19330;DHT22;9799;48.214;16.388;2022-07-19T13:56:24;31.70;54.50
19330;DHT22;9799;48.214;16.388;2022-07-19T13:59:45;31.90;55.90
19330;DHT22;9799;48.214;16.388;2022-07-19T14:03:08;31.90;54.50
19330;DHT22;9799;48.214;16.388;2022-07-19T14:06:29;32.10;54.60
19330;DHT22;9799;48.214;16.388;2022-07-19T14:09:51;31.90;54.30
19330;DHT22;9799;48.214;16.388;2022-07-19T14:13:12;31.80;53.70
19330;DHT22;9799;48.214;16.388;2022-07-19T14:16:33;31.80;53.80
19330;DHT22;9799;48.214;16.388;2022-07-19T14:19:56;32.00;53.00
19330;DHT22;9799;48.214;16.388;2022-07-19T14:23:17;32.20;53.20
19330;DHT22;9799;48.214;16.388;2022-07-19T14:26:39;32.20;53.40
19330;DHT22;9799;48.214;16.388;2022-07-19T14:30:00;32.30;52.90
19330;DHT22;9799;48.214;16.388;2022-07-19T14:33:21;32.40;53.20
19330;DHT22;9799;48.214;16.388;2022-07-19T14:36:44;32.40;52.60
19330;DHT22;9799;48.214;16.388;2022-07-19T14:40:06;32.20;53.00
19330;DHT22;9799;48.214;16.388;2022-07-19T14:43:27;32.30;52.90
19330;DHT22;9799;48.214;16.388;2022-07-19T14:46:49;32.30;53.00
19330;DHT22;9799;48.214;16.388;2022-07-19T14:50:11;32.20;52.80
19330;DHT22;9799;48.214;16.388;2022-07-19T14:53:33;32.20;53.20
19330;DHT22;9799;48.214;16.388;2022-07-19T14:56:55;32.00;53.70
19330;DHT22;9799;48.214;16.388;2022-07-19T15:00:17;32.10;53.30
19330;DHT22;9799;48.214;16.388;2022-07-19T15:03:38;32.20;53.40
19330;DHT22;9799;48.214;16.388;2022-07-19T15:06:59;32.20;53.50
19330;DHT22;9799;48.214;16.388;2022-07-19T15:10:22;32.00;53.40
19330;DHT22;9799;48.214;16.388;2022-07-19T15:13:43;32.00;53.60
19330;DHT22;9799;48.214;16.388;2022-07-19T15:17:04;32.10;53.10
19330;DHT22;9799;48.214;16.388;2022-07-19T15:20:26;31.90;53.50
19330;DHT22;9799;48.214;16.388;2022-07-19T15:23:47;32.00;52.90
19330;DHT22;9799;48.214;16.388;2022-07-19T15:27:10;32.10;53.70
19330;DHT22;9799;48.214;16.388;2022-07-19T15:30:31;32.20;53.10
19330;DHT22;9799;48.214;16.388;2022-07-19T15:33:52;32.10;52.70
19330;DHT22;9799;48.214;16.388;2022-07-19T15:37:13;32.00;52.40
19330;DHT22;9799;48.214;16.388;2022-07-19T15:40:35;31.90;52.90
19330;DHT22;9799;48.214;16.388;2022-07-19T15:43:58;32.00;52.20
19330;DHT22;9799;48.214;16.388;2022-07-19T15:47:20;32.00;51.80
19330;DHT22;9799;48.214;16.388;2022-07-19T15:50:41;31.90;52.60
19330;DHT22;9799;48.214;16.388;2022-07-19T15:54:06;31.80;52.60
19330;DHT22;9799;48.214;16.388;2022-07-19T15:57:27;31.70;52.90
19330;DHT22;9799;48.214;16.388;2022-07-19T16:00:50;31.40;53.50
19330;DHT22;9799;48.214;16.388;2022-07-19T16:04:11;31.40;53.40
19330;DHT22;9799;48.214;16.388;2022-07-19T16:07:32;31.50;53.20
19330;DHT22;9799;48.214;16.388;2022-07-19T16:10:54;31.50;53.60
19330;DHT22;9799;48.214;16.388;2022-07-19T16:14:15;31.60;53.00
19330;DHT22;9799;48.214;16.388;2022-07-19T16:17:37;31.50;52.60
19330;DHT22;9799;48.214;16.388;2022-07-19T16:20:59;31.50;53.70
19330;DHT22;9799;48.214;16.388;2022-07-19T16:24:20;31.50;53.20
19330;DHT22;9799;48.214;16.388;2022-07-19T16:27:42;31.60;52.90
19330;DHT22;9799;48.214;16.388;2022-07-19T16:31:03;31.60;52.50
19330;DHT22;9799;48.214;16.388;2022-07-19T16:34:26;31.80;52.50
19330;DHT22;9799;48.214;16.388;2022-07-19T16:37:48;31.90;53.30
19330;DHT22;9799;48.214;16.388;2022-07-19T16:41:09;31.90;52.70
19330;DHT22;9799;48.214;16.388;2022-07-19T16:44:31;31.90;52.00
19330;DHT22;9799;48.214;16.388;2022-07-19T16:47:52;31.90;52.10
19330;DHT22;9799;48.214;16.388;2022-07-19T16:51:15;31.90;51.90
19330;DHT22;9799;48.214;16.388;2022-07-19T16:54:36;31.70;52.70
19330;DHT22;9799;48.214;16.388;2022-07-19T16:57:57;31.60;52.60
19330;DHT22;9799;48.214;16.388;2022-07-19T17:01:18;31.30;53.00
19330;DHT22;9799;48.214;16.388;2022-07-19T17:04:40;31.20;53.20
19330;DHT22;9799;48.214;16.388;2022-07-19T17:08:05;31.20;53.70
19330;DHT22;9799;48.214;16.388;2022-07-19T17:11:26;31.20;54.20
19330;DHT22;9799;48.214;16.388;2022-07-19T17:14:47;31.10;53.20
19330;DHT22;9799;48.214;16.388;2022-07-19T17:18:08;31.00;53.50
19330;DHT22;9799;48.214;16.388;2022-07-19T17:21:29;31.10;54.50
19330;DHT22;9799;48.214;16.388;2022-07-19T17:24:52;31.00;55.10
19330;DHT22;9799;48.214;16.388;2022-07-19T17:28:13;31.00;54.40
19330;DHT22;9799;48.214;16.388;2022-07-19T17:31:34;30.90;55.10
19330;DHT22;9799;48.214;16.388;2022-07-19T17:34:56;30.90;54.80
19330;DHT22;9799;48.214;16.388;2022-07-19T17:38:17;30.70;54.50
19330;DHT22;9799;48.214;16.388;2022-07-19T17:41:40;30.70;55.10
19330;DHT22;9799;48.214;16.388;2022-07-19T17:45:01;30.60;54.70
19330;DHT22;9799;48.214;16.388;2022-07-19T17:48:22;30.60;56.00
19330;DHT22;9799;48.214;16.388;2022-07-19T17:51:44;30.50;56.10
19330;DHT22;9799;48.214;16.388;2022-07-19T17:55:06;30.50;55.70
19330;DHT22;9799;48.214;16.388;2022-07-19T17:58:28;30.50;55.90
19330;DHT22;9799;48.214;16.388;2022-07-19T18:01:49;30.40;56.00
19330;DHT22;9799;48.214;16.388;2022-07-19T18:05:11;30.30;56.60
19330;DHT22;9799;48.214;16.388;2022-07-19T18:08:32;30.20;57.60
19330;DHT22;9799;48.214;16.388;2022-07-19T18:11:54;30.10;57.40
19330;DHT22;9799;48.214;16.388;2022-07-19T18:15:16;30.00;57.70
19330;DHT22;9799;48.214;16.388;2022-07-19T18:18:38;30.10;57.60
19330;DHT22;9799;48.214;16.388;2022-07-19T18:21:59;30.00;57.70
19330;DHT22;9799;48.214;16.388;2022-07-19T18:25:20;29.90;58.10
19330;DHT22;9799;48.214;16.388;2022-07-19T18:28:41;29.80;58.50
19330;DHT22;9799;48.214;16.388;2022-07-19T18:32:05;29.80;59.10
19330;DHT22;9799;48.214;16.388;2022-07-19T18:35:26;29.70;59.30
19330;DHT22;9799;48.214;16.388;2022-07-19T18:38:47;29.60;60.20
19330;DHT22;9799;48.214;16.388;2022-07-19T18:42:08;29.50;59.80
19330;DHT22;9799;48.214;16.388;2022-07-19T18:45:30;29.50;59.50
19330;DHT22;9799;48.214;16.388;2022-07-19T18:48:52;29.30;60.50
19330;DHT22;9799;48.214;16.388;2022-07-19T18:52:14;29.20;60.50
19330;DHT22;9799;48.214;16.388;2022-07-19T18:55:35;29.10;60.70
19330;DHT22;9799;48.214;16.388;2022-07-19T18:58:56;29.00;60.70
19330;DHT22;9799;48.214;16.388;2022-07-19T19:02:17;29.00;60.60
19330;DHT22;9799;48.214;16.388;2022-07-19T19:05:40;28.90;60.80
19330;DHT22;9799;48.214;16.388;2022-07-19T19:09:02;28.80;60.90
19330;DHT22;9799;48.214;16.388;2022-07-19T19:12:24;28.70;61.70
19330;DHT22;9799;48.214;16.388;2022-07-19T19:15:45;28.70;61.50
19330;DHT22;9799;48.214;16.388;2022-07-19T19:19:06;28.60;61.30
19330;DHT22;9799;48.214;16.388;2022-07-19T19:22:29;28.60;61.70
19330;DHT22;9799;48.214;16.388;2022-07-19T19:25:50;28.50;61.90
19330;DHT22;9799;48.214;16.388;2022-07-19T19:29:11;28.50;62.30
19330;DHT22;9799;48.214;16.388;2022-07-19T19:32:32;28.40;62.30
19330;DHT22;9799;48.214;16.388;2022-07-19T19:35:53;28.40;62.60
19330;DHT22;9799;48.214;16.388;2022-07-19T19:39:16;28.30;62.80
19330;DHT22;9799;48.214;16.388;2022-07-19T19:42:37;28.20;63.30
19330;DHT22;9799;48.214;16.388;2022-07-19T19:45:59;28.20;63.10
19330;DHT22;9799;48.214;16.388;2022-07-19T19:49:20;28.10;63.20
19330;DHT22;9799;48.214;16.388;2022-07-19T19:52:41;28.00;63.20
19330;DHT22;9799;48.214;16.388;2022-07-19T19:56:05;28.00;63.80
19330;DHT22;9799;48.214;16.388;2022-07-19T19:59:27;28.00;63.50
19330;DHT22;9799;48.214;16.388;2022-07-19T20:02:48;28.00;63.30
19330;DHT22;9799;48.214;16.388;2022-07-19T20:06:10;27.90;63.50
19330;DHT22;9799;48.214;16.388;2022-07-19T20:09:31;27.90;63.70
19330;DHT22;9799;48.214;16.388;2022-07-19T20:12:54;27.80;65.80
19330;DHT22;9799;48.214;16.388;2022-07-19T20:16:15;27.70;65.30
19330;DHT22;9799;48.214;16.388;2022-07-19T20:19:36;27.70;65.20
19330;DHT22;9799;48.214;16.388;2022-07-19T20:22:57;27.70;66.00
19330;DHT22;9799;48.214;16.388;2022-07-19T20:26:18;27.70;66.00
19330;DHT22;9799;48.214;16.388;2022-07-19T20:29:41;27.70;65.80
19330;DHT22;9799;48.214;16.388;2022-07-19T20:33:02;27.60;66.20
19330;DHT22;9799;48.214;16.388;2022-07-19T20:36:23;27.50;65.50
19330;DHT22;9799;48.214;16.388;2022-07-19T20:39:45;27.50;66.10
19330;DHT22;9799;48.214;16.388;2022-07-19T20:43:06;27.40;66.10
19330;DHT22;9799;48.214;16.388;2022-07-19T20:46:28;27.40;66.50
19330;DHT22;9799;48.214;16.388;2022-07-19T20:49:49;27.30;66.90
19330;DHT22;9799;48.214;16.388;2022-07-19T20:53:11;27.30;66.90
19330;DHT22;9799;48.214;16.388;2022-07-19T20:56:32;27.30;68.70
19330;DHT22;9799;48.214;16.388;2022-07-19T20:59:53;27.20;69.10
19330;DHT22;9799;48.214;16.388;2022-07-19T21:03:16;27.10;69.40
19330;DHT22;9799;48.214;16.388;2022-07-19T21:06:37;27.10;69.10
19330;DHT22;9799;48.214;16.388;2022-07-19T21:09:59;27.10;69.40
19330;DHT22;9799;48.214;16.388;2022-07-19T21:13:20;27.00;69.80
19330;DHT22;9799;48.214;16.388;2022-07-19T21:16:41;27.00;69.90